Lunamar — 5BNV2 — position and weather

sailwx.info

Track history (hours):
 
Tides and Currents Weather Stations Pressure Air Temp Water Temp Dewpoint Dewpoint Depression Visibility Wind Speed Wind Dir Waves Ship Positions

Lunamar

Last reported at 2015-Feb-26 06:30 UTC. Time now 2015-Feb-28 07:01 UTC.
Position N 59°44' E 023°03'.

Length 90 m; draft 3.7 m.

Type: Cargo ship. MMSI: 212762000.

Date/timePositionNaut miles runAvg speedWind from/ knotsBaromVisibWave heightAir tempDewpointWater temp
2015-Feb-26 06:30N 59°44' E 023°03'7 7.1
2015-Feb-26 05:33N 59°42' E 023°16'8 8.1
2015-Feb-26 04:33N 59°42' E 023°32'8 8.1
2015-Feb-26 03:33N 59°44' E 023°48'11 8.5
2015-Feb-26 02:13N 59°46' E 024°10'66 9.8
2015-Feb-25 19:27N 60°06' E 026°16'910.4
2015-Feb-25 18:33N 60°14' E 026°25'1110.6
2015-Feb-25 17:33N 60°21' E 026°40'9 8.6
2015-Feb-25 16:33N 60°26' E 026°55'0 0.0
2015-Feb-25 15:33N 60°26' E 026°55'0 0.0
2015-Feb-25 14:33N 60°26' E 026°55'0 0.0
2015-Feb-25 13:33N 60°26' E 026°55'0 0.0
2015-Feb-25 12:33N 60°26' E 026°55'0 0.0
2015-Feb-25 11:33N 60°26' E 026°55'0 0.0
2015-Feb-25 10:33N 60°26' E 026°55'0 0.0
2015-Feb-25 09:33N 60°26' E 026°55'0 0.0
2015-Feb-25 08:33N 60°26' E 026°55'0 0.0
2015-Feb-25 07:33N 60°26' E 026°55'0 0.0
2015-Feb-25 06:33N 60°26' E 026°55'0 0.0
2015-Feb-25 05:33N 60°26' E 026°55'0 0.0
2015-Feb-25 04:33N 60°26' E 026°55'0 0.0
2015-Feb-25 03:33N 60°26' E 026°55'0 0.0
2015-Feb-25 02:33N 60°26' E 026°55'0 0.0
2015-Feb-25 01:33N 60°26' E 026°55'0 0.0
2015-Feb-25 00:33N 60°26' E 026°55'0 0.0
2015-Feb-24 23:33N 60°26' E 026°55'0 0.0
2015-Feb-24 22:33N 60°26' E 026°55'0 0.0
2015-Feb-24 21:33N 60°26' E 026°55'0 0.0
2015-Feb-24 20:33N 60°26' E 026°55'0 0.0
2015-Feb-24 19:33N 60°26' E 026°55'0 0.0
2015-Feb-24 18:33N 60°26' E 026°55'0 0.0
2015-Feb-24 17:33N 60°26' E 026°55'0 0.0
2015-Feb-24 16:33N 60°26' E 026°55'0 0.0
2015-Feb-24 15:33N 60°26' E 026°55'0 0.0
2015-Feb-24 14:33N 60°26' E 026°55'0 0.0
2015-Feb-24 13:33N 60°26' E 026°55'0 0.0
2015-Feb-24 12:33N 60°26' E 026°55'0 0.0
2015-Feb-24 11:33N 60°26' E 026°55'0 0.0
2015-Feb-24 10:33N 60°26' E 026°55'0 0.0
2015-Feb-24 09:33N 60°26' E 026°55'0 0.0
2015-Feb-24 08:33N 60°26' E 026°55'0 0.0
2015-Feb-24 07:33N 60°26' E 026°55'0 0.0
2015-Feb-24 06:33N 60°26' E 026°55'0 0.0
2015-Feb-24 05:33N 60°26' E 026°55'0 0.0
2015-Feb-24 04:33N 60°26' E 026°55'0 0.0
2015-Feb-24 03:33N 60°26' E 026°55'0 0.0
2015-Feb-24 02:33N 60°26' E 026°55'0 0.0
2015-Feb-24 01:33N 60°26' E 026°55'0 0.0
2015-Feb-24 00:33N 60°26' E 026°55'0 0.0
2015-Feb-23 23:33N 60°26' E 026°55'0 0.0
2015-Feb-23 22:33N 60°26' E 026°55'0 0.0
2015-Feb-23 21:33N 60°26' E 026°55'0 0.0
2015-Feb-23 20:33N 60°26' E 026°55'0 0.0
2015-Feb-23 19:33N 60°26' E 026°55'0 0.0
2015-Feb-23 18:33N 60°26' E 026°55'1 1.2
2015-Feb-23 17:33N 60°25' E 026°54'10 9.9
2015-Feb-23 16:33N 60°20' E 026°37'10 9.9
2015-Feb-23 15:33N 60°12' E 026°23'1110.7
2015-Feb-23 14:30N 60°02' E 026°15'5110.2
2015-Feb-23 09:32N 59°45' E 024°39'389 9.7
2015-Feb-21 17:12N 55°36' E 015°19'910.8
2015-Feb-21 16:21N 55°32' E 015°05'911.0
2015-Feb-21 15:33N 55°28' E 014°51'1110.7
2015-Feb-21 14:33N 55°21' E 014°36'1010.5
2015-Feb-21 13:33N 55°13' E 014°24'1110.6
2015-Feb-21 12:33N 55°05' E 014°13'2010.1
2015-Feb-21 10:33N 54°56' E 013°41'1410.3
2015-Feb-21 09:12N 54°52' E 013°18'710.4
2015-Feb-21 08:31N 54°49' E 013°06'1010.3
2015-Feb-21 07:33N 54°46' E 012°50'1010.1
2015-Feb-21 06:33N 54°41' E 012°34'1010.2
2015-Feb-21 05:33N 54°36' E 012°20'10 9.8
2015-Feb-21 04:33N 54°27' E 012°13'10 9.5
2015-Feb-21 03:33N 54°25' E 011°57'10 9.8
2015-Feb-21 02:33N 54°26' E 011°40'1010.2
2015-Feb-21 01:33N 54°31' E 011°25'1010.5
2015-Feb-21 00:33N 54°35' E 011°08'2210.0
2015-Feb-20 22:21N 54°33' E 010°31'8 9.7
2015-Feb-20 21:33N 54°29' E 010°18'9 9.3
2015-Feb-20 20:33N 54°22' E 010°09'2 1.5
2015-Feb-20 19:33N 54°22' E 010°07'6 5.6
2015-Feb-20 18:33N 54°20' E 009°58'6 6.3
2015-Feb-20 17:33N 54°21' E 009°47'7 7.2
2015-Feb-20 16:32N 54°16' E 009°38'14 5.9
2015-Feb-20 14:12N 54°08' E 009°20'4 6.7
2015-Feb-20 13:33N 54°03' E 009°18'8 7.9
2015-Feb-20 12:33N 53°56' E 009°13'3 3.5
2015-Feb-20 11:33N 53°54' E 009°09'2 1.9
2015-Feb-20 10:33N 53°53' E 009°06'8 7.6
2015-Feb-20 09:33N 53°50' E 008°54'8 8.3
2015-Feb-20 08:33N 53°54' E 008°41'8 8.1
2015-Feb-20 07:33N 53°58' E 008°29'9 8.5
2015-Feb-20 06:33N 53°60' E 008°15'12 9.6
2015-Feb-20 05:18N 53°57' E 007°55'11 9.0
2015-Feb-20 04:07N 53°55' E 007°37'64 9.7
2015-Feb-19 21:33N 53°38' E 005°53'1111.3
2015-Feb-19 20:32N 53°35' E 005°35'1111.4
2015-Feb-19 19:33N 53°31' E 005°17'1111.3
2015-Feb-19 18:33N 53°27' E 004°59'1010.5
2015-Feb-19 17:33N 53°23' E 004°43'125 9.6
2015-Feb-19 04:33N 51°45' E 002°35'1111.3
2015-Feb-19 03:32N 51°37' E 002°24'1512.1
2015-Feb-19 02:16N 51°24' E 002°10'1012.5
2015-Feb-19 01:26N 51°14' E 002°04'1112.8
2015-Feb-19 00:33N 51°08' E 001°48'6 5.8
2015-Feb-18 23:33N 51°03' E 001°52'8 7.6
2015-Feb-18 22:33N 51°03' E 002°04'9 8.8
2015-Feb-18 21:31N 51°04' E 002°18'2 1.7
2015-Feb-18 20:33N 51°03' E 002°21'2 0.2
2015-Feb-18 05:22N 51°03' E 002°17'0 0.0
2015-Feb-18 02:27N 51°03' E 002°17'0 0.0
2015-Feb-18 00:10N 51°03' E 002°17'0 0.0
2015-Feb-17 22:19N 51°03' E 002°17'0 0.0
2015-Feb-17 16:16N 51°03' E 002°17'0 0.0
2015-Feb-17 11:13N 51°03' E 002°17'2 1.3
2015-Feb-17 09:25N 51°03' E 002°21'1 0.8
2015-Feb-17 08:32N 51°04' E 002°21'7 7.4
2015-Feb-17 07:33N 51°08' E 002°31'3 2.7
2015-Feb-17 06:32N 51°10' E 002°34'3 3.5
2015-Feb-17 05:33N 51°12' E 002°37'4 3.9
2015-Feb-17 04:30N 51°16' E 002°40'5 3.9
2015-Feb-17 03:20N 51°20' E 002°42'2 3.1
2015-Feb-17 02:33N 51°22' E 002°44'10 9.7
2015-Feb-17 01:33N 51°22' E 003°00'1110.4
2015-Feb-17 00:28N 51°24' E 003°18'910.2
2015-Feb-16 23:33N 51°25' E 003°33'9 8.7
2015-Feb-16 22:33N 51°24' E 003°47'6 6.4
2015-Feb-16 21:33N 51°26' E 003°56'8 8.2
2015-Feb-16 20:33N 51°22' E 004°08'7 7.4
2015-Feb-16 19:33N 51°18' E 004°17'2 2.3
2015-Feb-16 18:34N 51°17' E 004°20'2 2.4
2015-Feb-16 17:34N 51°16' E 004°23'1 0.6
2015-Feb-16 16:32N 51°15' E 004°24'0 0.0
2015-Feb-16 15:32N 51°15' E 004°24'0 0.0
2015-Feb-16 14:32N 51°15' E 004°24'0 0.0
2015-Feb-16 13:32N 51°15' E 004°24'0 0.0
2015-Feb-16 12:32N 51°15' E 004°24'0 0.0
2015-Feb-16 11:29N 51°15' E 004°24'0 0.0
2015-Feb-16 10:32N 51°15' E 004°24'0 0.1
2015-Feb-16 09:32N 51°15' E 004°24'0 0.0
2015-Feb-16 08:32N 51°15' E 004°24'0 0.0
2015-Feb-16 07:32N 51°15' E 004°24'0 0.0
2015-Feb-16 06:32N 51°15' E 004°24'  
Track history (hours):
 
Tides and Currents Weather Stations Pressure Air Temp Water Temp Dewpoint Dewpoint Depression Visibility Wind Speed Wind Dir Waves Ship Positions

Lunamar

Last reported at 2015-Feb-26 06:30 UTC. Time now 2015-Feb-28 07:01 UTC.
Position N 59°44' E 023°03'.

Length 90 m; draft 3.7 m.

Type: Cargo ship. MMSI: 212762000.

Date/timePositionNaut miles runAvg speedWind from/ knotsBaromVisibWave heightAir tempDewpointWater temp
2015-Feb-26 06:30N 59°44' E 023°03'7 7.1
2015-Feb-26 05:33N 59°42' E 023°16'8 8.1
2015-Feb-26 04:33N 59°42' E 023°32'8 8.1
2015-Feb-26 03:33N 59°44' E 023°48'11 8.5
2015-Feb-26 02:13N 59°46' E 024°10'66 9.8
2015-Feb-25 19:27N 60°06' E 026°16'910.4
2015-Feb-25 18:33N 60°14' E 026°25'1110.6
2015-Feb-25 17:33N 60°21' E 026°40'9 8.6
2015-Feb-25 16:33N 60°26' E 026°55'0 0.0
2015-Feb-25 15:33N 60°26' E 026°55'0 0.0
2015-Feb-25 14:33N 60°26' E 026°55'0 0.0
2015-Feb-25 13:33N 60°26' E 026°55'0 0.0
2015-Feb-25 12:33N 60°26' E 026°55'0 0.0
2015-Feb-25 11:33N 60°26' E 026°55'0 0.0
2015-Feb-25 10:33N 60°26' E 026°55'0 0.0
2015-Feb-25 09:33N 60°26' E 026°55'0 0.0
2015-Feb-25 08:33N 60°26' E 026°55'0 0.0
2015-Feb-25 07:33N 60°26' E 026°55'0 0.0
2015-Feb-25 06:33N 60°26' E 026°55'0 0.0
2015-Feb-25 05:33N 60°26' E 026°55'0 0.0
2015-Feb-25 04:33N 60°26' E 026°55'0 0.0
2015-Feb-25 03:33N 60°26' E 026°55'0 0.0
2015-Feb-25 02:33N 60°26' E 026°55'0 0.0
2015-Feb-25 01:33N 60°26' E 026°55'0 0.0
2015-Feb-25 00:33N 60°26' E 026°55'0 0.0
2015-Feb-24 23:33N 60°26' E 026°55'0 0.0
2015-Feb-24 22:33N 60°26' E 026°55'0 0.0
2015-Feb-24 21:33N 60°26' E 026°55'0 0.0
2015-Feb-24 20:33N 60°26' E 026°55'0 0.0
2015-Feb-24 19:33N 60°26' E 026°55'0 0.0
2015-Feb-24 18:33N 60°26' E 026°55'0 0.0
2015-Feb-24 17:33N 60°26' E 026°55'0 0.0
2015-Feb-24 16:33N 60°26' E 026°55'0 0.0
2015-Feb-24 15:33N 60°26' E 026°55'0 0.0
2015-Feb-24 14:33N 60°26' E 026°55'0 0.0
2015-Feb-24 13:33N 60°26' E 026°55'0 0.0
2015-Feb-24 12:33N 60°26' E 026°55'0 0.0
2015-Feb-24 11:33N 60°26' E 026°55'0 0.0
2015-Feb-24 10:33N 60°26' E 026°55'0 0.0
2015-Feb-24 09:33N 60°26' E 026°55'0 0.0
2015-Feb-24 08:33N 60°26' E 026°55'0 0.0
2015-Feb-24 07:33N 60°26' E 026°55'0 0.0
2015-Feb-24 06:33N 60°26' E 026°55'0 0.0
2015-Feb-24 05:33N 60°26' E 026°55'0 0.0
2015-Feb-24 04:33N 60°26' E 026°55'0 0.0
2015-Feb-24 03:33N 60°26' E 026°55'0 0.0
2015-Feb-24 02:33N 60°26' E 026°55'0 0.0
2015-Feb-24 01:33N 60°26' E 026°55'0 0.0
2015-Feb-24 00:33N 60°26' E 026°55'0 0.0
2015-Feb-23 23:33N 60°26' E 026°55'0 0.0
2015-Feb-23 22:33N 60°26' E 026°55'0 0.0
2015-Feb-23 21:33N 60°26' E 026°55'0 0.0
2015-Feb-23 20:33N 60°26' E 026°55'0 0.0
2015-Feb-23 19:33N 60°26' E 026°55'0 0.0
2015-Feb-23 18:33N 60°26' E 026°55'1 1.2
2015-Feb-23 17:33N 60°25' E 026°54'10 9.9
2015-Feb-23 16:33N 60°20' E 026°37'10 9.9
2015-Feb-23 15:33N 60°12' E 026°23'1110.7
2015-Feb-23 14:30N 60°02' E 026°15'5110.2
2015-Feb-23 09:32N 59°45' E 024°39'389 9.7
2015-Feb-21 17:12N 55°36' E 015°19'910.8
2015-Feb-21 16:21N 55°32' E 015°05'911.0
2015-Feb-21 15:33N 55°28' E 014°51'1110.7
2015-Feb-21 14:33N 55°21' E 014°36'1010.5
2015-Feb-21 13:33N 55°13' E 014°24'1110.6
2015-Feb-21 12:33N 55°05' E 014°13'2010.1
2015-Feb-21 10:33N 54°56' E 013°41'1410.3
2015-Feb-21 09:12N 54°52' E 013°18'710.4
2015-Feb-21 08:31N 54°49' E 013°06'1010.3
2015-Feb-21 07:33N 54°46' E 012°50'1010.1
2015-Feb-21 06:33N 54°41' E 012°34'1010.2
2015-Feb-21 05:33N 54°36' E 012°20'10 9.8
2015-Feb-21 04:33N 54°27' E 012°13'10 9.5
2015-Feb-21 03:33N 54°25' E 011°57'10 9.8
2015-Feb-21 02:33N 54°26' E 011°40'1010.2
2015-Feb-21 01:33N 54°31' E 011°25'1010.5
2015-Feb-21 00:33N 54°35' E 011°08'2210.0
2015-Feb-20 22:21N 54°33' E 010°31'8 9.7
2015-Feb-20 21:33N 54°29' E 010°18'9 9.3
2015-Feb-20 20:33N 54°22' E 010°09'2 1.5
2015-Feb-20 19:33N 54°22' E 010°07'6 5.6
2015-Feb-20 18:33N 54°20' E 009°58'6 6.3
2015-Feb-20 17:33N 54°21' E 009°47'7 7.2
2015-Feb-20 16:32N 54°16' E 009°38'14 5.9
2015-Feb-20 14:12N 54°08' E 009°20'4 6.7
2015-Feb-20 13:33N 54°03' E 009°18'8 7.9
2015-Feb-20 12:33N 53°56' E 009°13'3 3.5
2015-Feb-20 11:33N 53°54' E 009°09'2 1.9
2015-Feb-20 10:33N 53°53' E 009°06'8 7.6
2015-Feb-20 09:33N 53°50' E 008°54'8 8.3
2015-Feb-20 08:33N 53°54' E 008°41'8 8.1
2015-Feb-20 07:33N 53°58' E 008°29'9 8.5
2015-Feb-20 06:33N 53°60' E 008°15'12 9.6
2015-Feb-20 05:18N 53°57' E 007°55'11 9.0
2015-Feb-20 04:07N 53°55' E 007°37'64 9.7
2015-Feb-19 21:33N 53°38' E 005°53'1111.3
2015-Feb-19 20:32N 53°35' E 005°35'1111.4
2015-Feb-19 19:33N 53°31' E 005°17'1111.3
2015-Feb-19 18:33N 53°27' E 004°59'1010.5
2015-Feb-19 17:33N 53°23' E 004°43'125 9.6
2015-Feb-19 04:33N 51°45' E 002°35'1111.3
2015-Feb-19 03:32N 51°37' E 002°24'1512.1
2015-Feb-19 02:16N 51°24' E 002°10'1012.5
2015-Feb-19 01:26N 51°14' E 002°04'1112.8
2015-Feb-19 00:33N 51°08' E 001°48'6 5.8
2015-Feb-18 23:33N 51°03' E 001°52'8 7.6
2015-Feb-18 22:33N 51°03' E 002°04'9 8.8
2015-Feb-18 21:31N 51°04' E 002°18'2 1.7
2015-Feb-18 20:33N 51°03' E 002°21'2 0.2
2015-Feb-18 05:22N 51°03' E 002°17'0 0.0
2015-Feb-18 02:27N 51°03' E 002°17'0 0.0
2015-Feb-18 00:10N 51°03' E 002°17'0 0.0
2015-Feb-17 22:19N 51°03' E 002°17'0 0.0
2015-Feb-17 16:16N 51°03' E 002°17'0 0.0
2015-Feb-17 11:13N 51°03' E 002°17'2 1.3
2015-Feb-17 09:25N 51°03' E 002°21'1 0.8
2015-Feb-17 08:32N 51°04' E 002°21'7 7.4
2015-Feb-17 07:33N 51°08' E 002°31'3 2.7
2015-Feb-17 06:32N 51°10' E 002°34'3 3.5
2015-Feb-17 05:33N 51°12' E 002°37'4 3.9
2015-Feb-17 04:30N 51°16' E 002°40'5 3.9
2015-Feb-17 03:20N 51°20' E 002°42'2 3.1
2015-Feb-17 02:33N 51°22' E 002°44'10 9.7
2015-Feb-17 01:33N 51°22' E 003°00'1110.4
2015-Feb-17 00:28N 51°24' E 003°18'910.2
2015-Feb-16 23:33N 51°25' E 003°33'9 8.7
2015-Feb-16 22:33N 51°24' E 003°47'6 6.4
2015-Feb-16 21:33N 51°26' E 003°56'8 8.2
2015-Feb-16 20:33N 51°22' E 004°08'7 7.4
2015-Feb-16 19:33N 51°18' E 004°17'2 2.3
2015-Feb-16 18:34N 51°17' E 004°20'2 2.4
2015-Feb-16 17:34N 51°16' E 004°23'1 0.6
2015-Feb-16 16:32N 51°15' E 004°24'0 0.0
2015-Feb-16 15:32N 51°15' E 004°24'0 0.0
2015-Feb-16 14:32N 51°15' E 004°24'0 0.0
2015-Feb-16 13:32N 51°15' E 004°24'0 0.0
2015-Feb-16 12:32N 51°15' E 004°24'0 0.0
2015-Feb-16 11:29N 51°15' E 004°24'0 0.0
2015-Feb-16 10:32N 51°15' E 004°24'0 0.1
2015-Feb-16 09:32N 51°15' E 004°24'0 0.0
2015-Feb-16 08:32N 51°15' E 004°24'0 0.0
2015-Feb-16 07:32N 51°15' E 004°24'0 0.0
2015-Feb-16 06:32N 51°15' E 004°24'  

Dump ship's entire track history